Aviation Digital Data Service (ADDS)

Output produced by METARs form (2026 UTC 20 July 2017)
found at http://www.aviationweather.gov/adds/metars/
 
METAR text: KCOU 201954Z 22009KT 10SM CLR 37/23 A3003 RMK AO2 SLP156 T03670228
Conditions at: KCOU (COLUMBIA , MO, US) observed 1954 UTC 20 July 2017
Temperature: 36.7°C (98°F)
Dewpoint: 22.8°C (73°F) [RH = 45%]
Pressure (altimeter): 30.03 inches Hg (1017.0 mb)
[Sea-level pressure: 1015.6 mb]
Winds: from the SW (220 degrees) at 10 MPH (9 knots; 4.7 m/s)
Visibility: 10 or more miles (16+ km)
Ceiling: at least 12,000 feet AGL
Clouds: sky clear below 12,000 feet AGL
Weather: no significant weather observed at this time